Hauptseite
METAR-TAF:

METAR-TAF

Flughäfen :

Militärflugplatz Ghedi

Brescia Ghedi, Italien

Breite: 45-25N, Länge: 010-17E, Höhe: 102 m

Beobachtung

Neuester Wetterbericht von vor 48 Minuten, um 16:55 UTC
Wind 3 kt aus West
Temperatur 32°C
Luftfeuchtigkeit 29%
Luftdruck 1016 hPa
Sichtweite 10 km oder mehr
keine Wolken unter 1500 m und keine Kumulonimbus oder Gewitterwolken

METAR: LIPL 181655Z 26003KT CAVOK 32/12 Q1016 RMK SKC VIS MIN 9999 WIND THR31 27004KT WIND THR13 25004KT BLU

Zeit: 19:43 (17:43 UTC)

Prognose

Neuester Wetterbericht von vor 43 Minuten, um 17:00 UTC
Gültige Prognose vom 18 um 18 UTC bis 19 um 03 UTC
Wind 4 kt aus Nordost
Sichtweite 10 km oder mehr
Leicht bewölkt in der Höhe von 5000 ft

TAF: LIPL 181700Z 1818/1903 05004KT 9999 FEW050

Wetterbeobachtungen und Prognosen von mehr als 4000 Flughäfen (METAR und TAF Bericht).

Die verfügbaren Stationen werden durch gelbe und rote Markierungen auf der Karte dargestellt.

Führen Sie die Maus auf sie, um den Namen der Station zu sehen.

Darauf klicken, um die Beobachtung von Wetterbeobachtungen und Prognosen zu sehen.

Um die Karte zu ändern : klicken Sie auf den grünen Tasten mit einem schwarzen Kreuz Zum Vergrößern, auf den grünen Button mit einem Gedankenstrich zu verkleinern, oder auf die grünen Pfeile für benachbarte Karten.


METAR-TAF: